sensor_id;sensor_type;location;lat;lon;timestamp;P1;durP1;ratioP1;P2;durP2;ratioP2
11123;SDS011;5616;42.692;23.312;2022-11-23T00:01:23;13.27;;;9.43;;
11123;SDS011;5616;42.692;23.312;2022-11-23T00:03:52;11.70;;;9.80;;
11123;SDS011;5616;42.692;23.312;2022-11-23T00:06:20;13.37;;;9.03;;
11123;SDS011;5616;42.692;23.312;2022-11-23T00:08:49;12.50;;;9.30;;
11123;SDS011;5616;42.692;23.312;2022-11-23T00:11:16;10.73;;;8.77;;
11123;SDS011;5616;42.692;23.312;2022-11-23T00:13:44;11.53;;;9.80;;
11123;SDS011;5616;42.692;23.312;2022-11-23T00:16:13;14.30;;;10.23;;
11123;SDS011;5616;42.692;23.312;2022-11-23T00:18:41;14.10;;;11.57;;
11123;SDS011;5616;42.692;23.312;2022-11-23T00:21:09;14.07;;;11.23;;
11123;SDS011;5616;42.692;23.312;2022-11-23T00:23:37;14.03;;;11.00;;
11123;SDS011;5616;42.692;23.312;2022-11-23T00:26:04;15.60;;;11.53;;
11123;SDS011;5616;42.692;23.312;2022-11-23T00:28:31;16.67;;;12.17;;
11123;SDS011;5616;42.692;23.312;2022-11-23T00:30:59;17.20;;;12.13;;
11123;SDS011;5616;42.692;23.312;2022-11-23T00:33:27;16.30;;;11.47;;
11123;SDS011;5616;42.692;23.312;2022-11-23T00:35:57;16.10;;;11.77;;
11123;SDS011;5616;42.692;23.312;2022-11-23T00:38:25;17.57;;;11.70;;
11123;SDS011;5616;42.692;23.312;2022-11-23T00:40:56;16.33;;;11.87;;
11123;SDS011;5616;42.692;23.312;2022-11-23T00:43:24;15.20;;;11.33;;
11123;SDS011;5616;42.692;23.312;2022-11-23T00:46:00;14.93;;;11.67;;
11123;SDS011;5616;42.692;23.312;2022-11-23T00:48:29;16.63;;;11.83;;
11123;SDS011;5616;42.692;23.312;2022-11-23T00:50:58;16.27;;;12.17;;
11123;SDS011;5616;42.692;23.312;2022-11-23T00:53:25;14.20;;;11.50;;
11123;SDS011;5616;42.692;23.312;2022-11-23T00:55:52;15.30;;;11.50;;
11123;SDS011;5616;42.692;23.312;2022-11-23T00:58:19;15.50;;;11.60;;
11123;SDS011;5616;42.692;23.312;2022-11-23T01:00:46;14.43;;;11.70;;
11123;SDS011;5616;42.692;23.312;2022-11-23T01:03:13;16.30;;;11.83;;
11123;SDS011;5616;42.692;23.312;2022-11-23T01:05:42;15.07;;;10.73;;
11123;SDS011;5616;42.692;23.312;2022-11-23T01:08:08;12.00;;;10.23;;
11123;SDS011;5616;42.692;23.312;2022-11-23T01:10:35;11.87;;;9.83;;
11123;SDS011;5616;42.692;23.312;2022-11-23T01:13:02;12.93;;;9.90;;
11123;SDS011;5616;42.692;23.312;2022-11-23T01:15:29;11.53;;;9.50;;
11123;SDS011;5616;42.692;23.312;2022-11-23T01:17:55;13.15;;;11.48;;
11123;SDS011;5616;42.692;23.312;2022-11-23T01:20:22;12.32;;;11.00;;
11123;SDS011;5616;42.692;23.312;2022-11-23T01:22:51;13.20;;;10.70;;
11123;SDS011;5616;42.692;23.312;2022-11-23T01:25:18;11.70;;;9.13;;
11123;SDS011;5616;42.692;23.312;2022-11-23T01:27:45;10.87;;;9.13;;
11123;SDS011;5616;42.692;23.312;2022-11-23T01:30:12;11.23;;;9.30;;
11123;SDS011;5616;42.692;23.312;2022-11-23T01:32:39;12.60;;;10.03;;
11123;SDS011;5616;42.692;23.312;2022-11-23T01:35:06;11.10;;;9.93;;
11123;SDS011;5616;42.692;23.312;2022-11-23T01:37:33;11.23;;;9.27;;
11123;SDS011;5616;42.692;23.312;2022-11-23T01:40:01;13.27;;;9.40;;
11123;SDS011;5616;42.692;23.312;2022-11-23T01:45:35;9.97;;;8.07;;
11123;SDS011;5616;42.692;23.312;2022-11-23T01:48:05;13.83;;;8.67;;
11123;SDS011;5616;42.692;23.312;2022-11-23T01:50:36;9.00;;;8.10;;
11123;SDS011;5616;42.692;23.312;2022-11-23T01:53:04;10.97;;;8.80;;
11123;SDS011;5616;42.692;23.312;2022-11-23T01:55:32;13.07;;;9.03;;
11123;SDS011;5616;42.692;23.312;2022-11-23T01:58:02;11.30;;;9.30;;
11123;SDS011;5616;42.692;23.312;2022-11-23T02:00:32;13.67;;;9.57;;
11123;SDS011;5616;42.692;23.312;2022-11-23T02:03:00;13.03;;;9.90;;
11123;SDS011;5616;42.692;23.312;2022-11-23T02:05:31;11.77;;;9.30;;
11123;SDS011;5616;42.692;23.312;2022-11-23T02:08:04;10.97;;;9.07;;
11123;SDS011;5616;42.692;23.312;2022-11-23T02:10:34;10.07;;;8.13;;
11123;SDS011;5616;42.692;23.312;2022-11-23T02:13:02;9.80;;;7.93;;
11123;SDS011;5616;42.692;23.312;2022-11-23T02:15:34;10.70;;;8.90;;
11123;SDS011;5616;42.692;23.312;2022-11-23T02:18:02;13.80;;;8.20;;
11123;SDS011;5616;42.692;23.312;2022-11-23T02:20:31;9.30;;;8.23;;
11123;SDS011;5616;42.692;23.312;2022-11-23T02:23:00;9.57;;;8.07;;
11123;SDS011;5616;42.692;23.312;2022-11-23T02:28:21;10.03;;;7.60;;
11123;SDS011;5616;42.692;23.312;2022-11-23T02:30:50;8.37;;;7.53;;
11123;SDS011;5616;42.692;23.312;2022-11-23T02:33:21;9.40;;;8.40;;
11123;SDS011;5616;42.692;23.312;2022-11-23T02:35:50;10.63;;;8.23;;
11123;SDS011;5616;42.692;23.312;2022-11-23T02:38:18;10.97;;;8.00;;
11123;SDS011;5616;42.692;23.312;2022-11-23T02:40:45;10.17;;;8.20;;
11123;SDS011;5616;42.692;23.312;2022-11-23T02:43:14;9.70;;;8.57;;
11123;SDS011;5616;42.692;23.312;2022-11-23T02:45:42;11.00;;;8.80;;
11123;SDS011;5616;42.692;23.312;2022-11-23T02:48:15;12.87;;;9.40;;
11123;SDS011;5616;42.692;23.312;2022-11-23T02:50:41;11.27;;;9.53;;
11123;SDS011;5616;42.692;23.312;2022-11-23T02:53:08;12.67;;;9.77;;
11123;SDS011;5616;42.692;23.312;2022-11-23T02:55:35;11.30;;;9.90;;
11123;SDS011;5616;42.692;23.312;2022-11-23T02:58:03;11.70;;;10.27;;
11123;SDS011;5616;42.692;23.312;2022-11-23T03:00:32;11.73;;;9.60;;
11123;SDS011;5616;42.692;23.312;2022-11-23T03:02:59;10.63;;;8.53;;
11123;SDS011;5616;42.692;23.312;2022-11-23T03:05:27;8.93;;;7.80;;
11123;SDS011;5616;42.692;23.312;2022-11-23T03:07:54;11.53;;;8.10;;
11123;SDS011;5616;42.692;23.312;2022-11-23T03:10:21;9.67;;;7.67;;
11123;SDS011;5616;42.692;23.312;2022-11-23T03:12:52;10.17;;;7.60;;
11123;SDS011;5616;42.692;23.312;2022-11-23T03:15:19;10.60;;;8.20;;
11123;SDS011;5616;42.692;23.312;2022-11-23T03:17:48;11.13;;;7.47;;
11123;SDS011;5616;42.692;23.312;2022-11-23T03:20:15;8.53;;;7.57;;
11123;SDS011;5616;42.692;23.312;2022-11-23T03:22:44;9.13;;;7.73;;
11123;SDS011;5616;42.692;23.312;2022-11-23T03:25:13;11.27;;;8.60;;
11123;SDS011;5616;42.692;23.312;2022-11-23T03:27:44;10.27;;;7.67;;
11123;SDS011;5616;42.692;23.312;2022-11-23T03:30:11;10.23;;;7.47;;
11123;SDS011;5616;42.692;23.312;2022-11-23T03:32:38;10.40;;;8.67;;
11123;SDS011;5616;42.692;23.312;2022-11-23T03:35:07;9.67;;;8.50;;
11123;SDS011;5616;42.692;23.312;2022-11-23T03:37:43;9.97;;;8.80;;
11123;SDS011;5616;42.692;23.312;2022-11-23T03:40:10;8.63;;;7.73;;
11123;SDS011;5616;42.692;23.312;2022-11-23T03:42:56;10.00;;;8.10;;
11123;SDS011;5616;42.692;23.312;2022-11-23T03:45:23;10.00;;;8.23;;
11123;SDS011;5616;42.692;23.312;2022-11-23T03:47:50;9.80;;;7.80;;
11123;SDS011;5616;42.692;23.312;2022-11-23T03:50:18;10.10;;;8.03;;
11123;SDS011;5616;42.692;23.312;2022-11-23T03:52:47;9.27;;;7.97;;
11123;SDS011;5616;42.692;23.312;2022-11-23T03:55:14;10.23;;;8.60;;
11123;SDS011;5616;42.692;23.312;2022-11-23T03:57:41;8.50;;;7.57;;
11123;SDS011;5616;42.692;23.312;2022-11-23T04:00:09;10.60;;;8.17;;
11123;SDS011;5616;42.692;23.312;2022-11-23T04:02:39;9.20;;;7.20;;
11123;SDS011;5616;42.692;23.312;2022-11-23T04:05:21;8.97;;;7.40;;
11123;SDS011;5616;42.692;23.312;2022-11-23T04:08:07;10.07;;;7.50;;
11123;SDS011;5616;42.692;23.312;2022-11-23T04:10:34;10.63;;;8.13;;
11123;SDS011;5616;42.692;23.312;2022-11-23T04:13:11;10.30;;;7.93;;
11123;SDS011;5616;42.692;23.312;2022-11-23T04:15:38;10.20;;;8.30;;
11123;SDS011;5616;42.692;23.312;2022-11-23T04:18:05;10.20;;;7.77;;
11123;SDS011;5616;42.692;23.312;2022-11-23T04:20:33;9.03;;;7.60;;
11123;SDS011;5616;42.692;23.312;2022-11-23T04:23:00;8.77;;;7.50;;
11123;SDS011;5616;42.692;23.312;2022-11-23T04:25:28;12.40;;;8.10;;
11123;SDS011;5616;42.692;23.312;2022-11-23T04:27:56;9.10;;;7.70;;
11123;SDS011;5616;42.692;23.312;2022-11-23T04:30:23;9.37;;;8.33;;
11123;SDS011;5616;42.692;23.312;2022-11-23T04:32:53;9.77;;;8.53;;
11123;SDS011;5616;42.692;23.312;2022-11-23T04:35:20;10.57;;;8.13;;
11123;SDS011;5616;42.692;23.312;2022-11-23T04:37:50;9.13;;;7.97;;
11123;SDS011;5616;42.692;23.312;2022-11-23T04:40:18;9.60;;;8.13;;
11123;SDS011;5616;42.692;23.312;2022-11-23T04:42:56;11.27;;;8.80;;
11123;SDS011;5616;42.692;23.312;2022-11-23T04:45:23;13.27;;;8.47;;
11123;SDS011;5616;42.692;23.312;2022-11-23T04:47:51;12.27;;;8.80;;
11123;SDS011;5616;42.692;23.312;2022-11-23T04:50:19;13.77;;;10.20;;
11123;SDS011;5616;42.692;23.312;2022-11-23T04:52:51;14.93;;;9.97;;
11123;SDS011;5616;42.692;23.312;2022-11-23T04:55:22;13.53;;;10.80;;
11123;SDS011;5616;42.692;23.312;2022-11-23T04:57:55;14.43;;;10.93;;
11123;SDS011;5616;42.692;23.312;2022-11-23T05:00:25;13.43;;;10.33;;
11123;SDS011;5616;42.692;23.312;2022-11-23T05:02:54;11.80;;;9.43;;
11123;SDS011;5616;42.692;23.312;2022-11-23T05:05:25;11.43;;;9.23;;
11123;SDS011;5616;42.692;23.312;2022-11-23T05:07:54;10.83;;;9.43;;
11123;SDS011;5616;42.692;23.312;2022-11-23T05:10:24;14.07;;;10.30;;
11123;SDS011;5616;42.692;23.312;2022-11-23T05:12:55;11.53;;;9.23;;
11123;SDS011;5616;42.692;23.312;2022-11-23T05:15:22;13.27;;;10.37;;
11123;SDS011;5616;42.692;23.312;2022-11-23T05:17:49;11.77;;;10.00;;
11123;SDS011;5616;42.692;23.312;2022-11-23T05:20:22;12.18;;;10.85;;
11123;SDS011;5616;42.692;23.312;2022-11-23T05:22:49;11.87;;;10.07;;
11123;SDS011;5616;42.692;23.312;2022-11-23T05:25:21;12.67;;;10.40;;
11123;SDS011;5616;42.692;23.312;2022-11-23T05:27:54;13.13;;;9.97;;
11123;SDS011;5616;42.692;23.312;2022-11-23T05:30:21;11.27;;;9.83;;
11123;SDS011;5616;42.692;23.312;2022-11-23T05:32:49;10.07;;;9.07;;
11123;SDS011;5616;42.692;23.312;2022-11-23T05:35:17;10.83;;;9.63;;
11123;SDS011;5616;42.692;23.312;2022-11-23T05:37:44;11.18;;;9.90;;
11123;SDS011;5616;42.692;23.312;2022-11-23T05:40:12;14.20;;;10.60;;
11123;SDS011;5616;42.692;23.312;2022-11-23T05:42:41;10.73;;;9.63;;
11123;SDS011;5616;42.692;23.312;2022-11-23T05:45:16;10.70;;;9.07;;
11123;SDS011;5616;42.692;23.312;2022-11-23T05:47:48;11.57;;;9.67;;
11123;SDS011;5616;42.692;23.312;2022-11-23T05:50:21;11.93;;;9.63;;
11123;SDS011;5616;42.692;23.312;2022-11-23T05:53:11;11.90;;;10.37;;
11123;SDS011;5616;42.692;23.312;2022-11-23T05:55:38;14.40;;;10.47;;
11123;SDS011;5616;42.692;23.312;2022-11-23T05:58:08;13.83;;;10.80;;
11123;SDS011;5616;42.692;23.312;2022-11-23T06:00:35;12.73;;;11.30;;
11123;SDS011;5616;42.692;23.312;2022-11-23T06:03:04;14.93;;;11.73;;
11123;SDS011;5616;42.692;23.312;2022-11-23T06:05:31;13.83;;;11.50;;
11123;SDS011;5616;42.692;23.312;2022-11-23T06:07:58;14.43;;;12.93;;
11123;SDS011;5616;42.692;23.312;2022-11-23T06:10:26;13.23;;;11.73;;
11123;SDS011;5616;42.692;23.312;2022-11-23T06:12:54;14.63;;;13.10;;
11123;SDS011;5616;42.692;23.312;2022-11-23T06:15:23;18.80;;;12.57;;
11123;SDS011;5616;42.692;23.312;2022-11-23T06:17:50;16.37;;;13.70;;
11123;SDS011;5616;42.692;23.312;2022-11-23T06:20:19;16.90;;;13.83;;
11123;SDS011;5616;42.692;23.312;2022-11-23T06:22:55;15.43;;;13.80;;
11123;SDS011;5616;42.692;23.312;2022-11-23T06:25:24;19.27;;;15.00;;
11123;SDS011;5616;42.692;23.312;2022-11-23T06:28:09;15.50;;;13.80;;
11123;SDS011;5616;42.692;23.312;2022-11-23T06:30:42;21.07;;;17.23;;
11123;SDS011;5616;42.692;23.312;2022-11-23T06:33:10;16.80;;;13.83;;
11123;SDS011;5616;42.692;23.312;2022-11-23T06:35:50;19.70;;;15.47;;
11123;SDS011;5616;42.692;23.312;2022-11-23T06:38:17;17.73;;;14.43;;
11123;SDS011;5616;42.692;23.312;2022-11-23T06:40:44;22.40;;;17.93;;
11123;SDS011;5616;42.692;23.312;2022-11-23T06:43:11;28.87;;;20.93;;
11123;SDS011;5616;42.692;23.312;2022-11-23T06:45:43;20.43;;;16.73;;
11123;SDS011;5616;42.692;23.312;2022-11-23T06:48:13;18.43;;;15.87;;
11123;SDS011;5616;42.692;23.312;2022-11-23T06:50:44;17.73;;;14.37;;
11123;SDS011;5616;42.692;23.312;2022-11-23T06:53:12;20.03;;;14.87;;
11123;SDS011;5616;42.692;23.312;2022-11-23T06:55:43;28.47;;;20.47;;
11123;SDS011;5616;42.692;23.312;2022-11-23T06:58:13;18.00;;;13.63;;
11123;SDS011;5616;42.692;23.312;2022-11-23T07:00:43;17.37;;;13.60;;
11123;SDS011;5616;42.692;23.312;2022-11-23T07:03:12;21.93;;;16.77;;
11123;SDS011;5616;42.692;23.312;2022-11-23T07:05:47;16.83;;;14.20;;
11123;SDS011;5616;42.692;23.312;2022-11-23T07:08:17;16.23;;;13.50;;
11123;SDS011;5616;42.692;23.312;2022-11-23T07:10:44;16.57;;;13.27;;
11123;SDS011;5616;42.692;23.312;2022-11-23T07:13:14;14.23;;;12.73;;
11123;SDS011;5616;42.692;23.312;2022-11-23T07:15:42;14.97;;;12.50;;
11123;SDS011;5616;42.692;23.312;2022-11-23T07:18:09;15.83;;;13.10;;
11123;SDS011;5616;42.692;23.312;2022-11-23T07:20:43;14.00;;;12.47;;
11123;SDS011;5616;42.692;23.312;2022-11-23T07:23:11;14.20;;;12.03;;
11123;SDS011;5616;42.692;23.312;2022-11-23T07:25:39;13.50;;;11.47;;
11123;SDS011;5616;42.692;23.312;2022-11-23T07:28:06;15.73;;;11.87;;
11123;SDS011;5616;42.692;23.312;2022-11-23T07:30:33;19.23;;;13.00;;
11123;SDS011;5616;42.692;23.312;2022-11-23T07:33:04;15.87;;;14.17;;
11123;SDS011;5616;42.692;23.312;2022-11-23T07:35:34;15.60;;;13.10;;
11123;SDS011;5616;42.692;23.312;2022-11-23T07:38:02;13.73;;;12.27;;
11123;SDS011;5616;42.692;23.312;2022-11-23T07:40:32;17.27;;;14.00;;
11123;SDS011;5616;42.692;23.312;2022-11-23T07:43:01;13.23;;;11.93;;
11123;SDS011;5616;42.692;23.312;2022-11-23T07:45:28;14.50;;;12.10;;
11123;SDS011;5616;42.692;23.312;2022-11-23T07:47:58;16.60;;;11.40;;
11123;SDS011;5616;42.692;23.312;2022-11-23T07:50:27;12.90;;;11.23;;
11123;SDS011;5616;42.692;23.312;2022-11-23T07:52:54;13.37;;;11.93;;
11123;SDS011;5616;42.692;23.312;2022-11-23T07:55:21;14.30;;;12.67;;
11123;SDS011;5616;42.692;23.312;2022-11-23T07:57:50;17.43;;;13.33;;
11123;SDS011;5616;42.692;23.312;2022-11-23T08:00:18;17.50;;;13.80;;
11123;SDS011;5616;42.692;23.312;2022-11-23T08:02:45;15.43;;;13.70;;
11123;SDS011;5616;42.692;23.312;2022-11-23T08:05:12;16.57;;;14.73;;
11123;SDS011;5616;42.692;23.312;2022-11-23T08:07:40;16.57;;;14.47;;
11123;SDS011;5616;42.692;23.312;2022-11-23T08:10:09;19.13;;;15.40;;
11123;SDS011;5616;42.692;23.312;2022-11-23T08:12:36;19.93;;;16.30;;
11123;SDS011;5616;42.692;23.312;2022-11-23T08:15:03;19.97;;;14.87;;
11123;SDS011;5616;42.692;23.312;2022-11-23T08:17:30;21.03;;;15.17;;
11123;SDS011;5616;42.692;23.312;2022-11-23T08:19:57;28.20;;;19.70;;
11123;SDS011;5616;42.692;23.312;2022-11-23T08:22:24;24.27;;;18.20;;
11123;SDS011;5616;42.692;23.312;2022-11-23T08:24:53;26.93;;;17.60;;
11123;SDS011;5616;42.692;23.312;2022-11-23T08:27:19;18.77;;;15.90;;
11123;SDS011;5616;42.692;23.312;2022-11-23T08:29:46;17.77;;;15.87;;
11123;SDS011;5616;42.692;23.312;2022-11-23T08:32:13;45.77;;;25.00;;
11123;SDS011;5616;42.692;23.312;2022-11-23T08:34:41;19.40;;;16.30;;
11123;SDS011;5616;42.692;23.312;2022-11-23T08:37:08;17.80;;;14.43;;
11123;SDS011;5616;42.692;23.312;2022-11-23T08:39:34;17.17;;;14.30;;
11123;SDS011;5616;42.692;23.312;2022-11-23T08:42:03;17.07;;;14.73;;
11123;SDS011;5616;42.692;23.312;2022-11-23T08:44:30;16.53;;;14.80;;
11123;SDS011;5616;42.692;23.312;2022-11-23T08:46:56;16.57;;;14.83;;
11123;SDS011;5616;42.692;23.312;2022-11-23T08:49:23;18.23;;;14.90;;
11123;SDS011;5616;42.692;23.312;2022-11-23T08:51:50;16.27;;;14.57;;
11123;SDS011;5616;42.692;23.312;2022-11-23T08:54:17;18.17;;;14.13;;
11123;SDS011;5616;42.692;23.312;2022-11-23T08:56:44;16.57;;;13.70;;
11123;SDS011;5616;42.692;23.312;2022-11-23T08:59:12;17.23;;;15.37;;
11123;SDS011;5616;42.692;23.312;2022-11-23T09:01:39;17.13;;;15.00;;
11123;SDS011;5616;42.692;23.312;2022-11-23T09:04:05;16.77;;;14.37;;
11123;SDS011;5616;42.692;23.312;2022-11-23T09:06:32;18.33;;;14.93;;
11123;SDS011;5616;42.692;23.312;2022-11-23T09:08:59;17.57;;;14.67;;
11123;SDS011;5616;42.692;23.312;2022-11-23T09:11:26;14.23;;;12.67;;
11123;SDS011;5616;42.692;23.312;2022-11-23T09:13:53;20.93;;;14.47;;
11123;SDS011;5616;42.692;23.312;2022-11-23T09:16:21;17.87;;;12.60;;
11123;SDS011;5616;42.692;23.312;2022-11-23T09:18:48;14.83;;;12.53;;
11123;SDS011;5616;42.692;23.312;2022-11-23T09:21:15;32.63;;;17.23;;
11123;SDS011;5616;42.692;23.312;2022-11-23T09:23:41;14.83;;;12.17;;
11123;SDS011;5616;42.692;23.312;2022-11-23T09:26:08;21.57;;;14.27;;
11123;SDS011;5616;42.692;23.312;2022-11-23T09:28:35;14.80;;;12.70;;
11123;SDS011;5616;42.692;23.312;2022-11-23T09:31:03;16.43;;;13.07;;
11123;SDS011;5616;42.692;23.312;2022-11-23T09:33:31;13.80;;;11.70;;
11123;SDS011;5616;42.692;23.312;2022-11-23T09:35:58;13.40;;;11.50;;
11123;SDS011;5616;42.692;23.312;2022-11-23T09:38:26;12.23;;;10.67;;
11123;SDS011;5616;42.692;23.312;2022-11-23T09:40:55;11.20;;;9.60;;
11123;SDS011;5616;42.692;23.312;2022-11-23T09:43:36;12.40;;;10.67;;
11123;SDS011;5616;42.692;23.312;2022-11-23T09:46:11;13.40;;;9.57;;
11123;SDS011;5616;42.692;23.312;2022-11-23T09:48:54;12.03;;;9.67;;
11123;SDS011;5616;42.692;23.312;2022-11-23T09:51:33;13.53;;;10.37;;
11123;SDS011;5616;42.692;23.312;2022-11-23T09:54:03;17.30;;;10.77;;
11123;SDS011;5616;42.692;23.312;2022-11-23T09:56:36;11.97;;;8.80;;
11123;SDS011;5616;42.692;23.312;2022-11-23T09:59:09;25.40;;;14.27;;
11123;SDS011;5616;42.692;23.312;2022-11-23T10:01:39;11.90;;;9.13;;
11123;SDS011;5616;42.692;23.312;2022-11-23T10:04:09;10.03;;;8.60;;
11123;SDS011;5616;42.692;23.312;2022-11-23T10:06:42;11.20;;;7.63;;
11123;SDS011;5616;42.692;23.312;2022-11-23T10:09:17;10.90;;;8.47;;
11123;SDS011;5616;42.692;23.312;2022-11-23T10:12:07;10.87;;;8.07;;
11123;SDS011;5616;42.692;23.312;2022-11-23T10:14:55;10.10;;;8.10;;
11123;SDS011;5616;42.692;23.312;2022-11-23T10:17:36;18.47;;;10.87;;
11123;SDS011;5616;42.692;23.312;2022-11-23T10:20:31;14.23;;;10.30;;
11123;SDS011;5616;42.692;23.312;2022-11-23T10:23:11;11.73;;;7.80;;
11123;SDS011;5616;42.692;23.312;2022-11-23T10:25:45;10.47;;;7.63;;
11123;SDS011;5616;42.692;23.312;2022-11-23T10:28:15;12.70;;;9.13;;
11123;SDS011;5616;42.692;23.312;2022-11-23T10:30:44;8.20;;;6.53;;
11123;SDS011;5616;42.692;23.312;2022-11-23T10:33:18;7.63;;;6.43;;
11123;SDS011;5616;42.692;23.312;2022-11-23T10:35:55;7.53;;;5.97;;
11123;SDS011;5616;42.692;23.312;2022-11-23T10:38:24;6.93;;;5.67;;
11123;SDS011;5616;42.692;23.312;2022-11-23T10:40:55;6.50;;;5.27;;
11123;SDS011;5616;42.692;23.312;2022-11-23T10:43:27;6.67;;;5.30;;
11123;SDS011;5616;42.692;23.312;2022-11-23T10:46:21;6.80;;;5.30;;
11123;SDS011;5616;42.692;23.312;2022-11-23T10:48:49;7.63;;;4.83;;
11123;SDS011;5616;42.692;23.312;2022-11-23T10:51:20;4.87;;;4.30;;
11123;SDS011;5616;42.692;23.312;2022-11-23T10:53:52;6.23;;;4.73;;
11123;SDS011;5616;42.692;23.312;2022-11-23T10:56:23;7.37;;;4.73;;
11123;SDS011;5616;42.692;23.312;2022-11-23T10:58:50;6.87;;;4.10;;
11123;SDS011;5616;42.692;23.312;2022-11-23T11:01:18;14.20;;;7.23;;
11123;SDS011;5616;42.692;23.312;2022-11-23T11:03:48;8.77;;;5.70;;
11123;SDS011;5616;42.692;23.312;2022-11-23T11:06:21;17.47;;;8.73;;
11123;SDS011;5616;42.692;23.312;2022-11-23T11:08:50;63.03;;;24.60;;
11123;SDS011;5616;42.692;23.312;2022-11-23T11:11:23;17.00;;;9.13;;
11123;SDS011;5616;42.692;23.312;2022-11-23T11:14:00;20.53;;;9.47;;
11123;SDS011;5616;42.692;23.312;2022-11-23T11:16:30;17.30;;;10.03;;
11123;SDS011;5616;42.692;23.312;2022-11-23T11:18:59;7.53;;;4.80;;
11123;SDS011;5616;42.692;23.312;2022-11-23T11:21:48;15.57;;;9.30;;
11123;SDS011;5616;42.692;23.312;2022-11-23T11:24:16;19.13;;;10.00;;
11123;SDS011;5616;42.692;23.312;2022-11-23T11:26:46;15.87;;;8.53;;
11123;SDS011;5616;42.692;23.312;2022-11-23T11:29:22;14.30;;;6.60;;
11123;SDS011;5616;42.692;23.312;2022-11-23T11:31:55;7.60;;;5.00;;
11123;SDS011;5616;42.692;23.312;2022-11-23T11:34:27;4.57;;;3.83;;
11123;SDS011;5616;42.692;23.312;2022-11-23T11:37:01;5.53;;;3.97;;
11123;SDS011;5616;42.692;23.312;2022-11-23T11:39:36;4.83;;;4.13;;
11123;SDS011;5616;42.692;23.312;2022-11-23T11:42:10;4.23;;;2.70;;
11123;SDS011;5616;42.692;23.312;2022-11-23T11:44:42;3.77;;;1.87;;
11123;SDS011;5616;42.692;23.312;2022-11-23T11:47:17;4.03;;;2.13;;
11123;SDS011;5616;42.692;23.312;2022-11-23T11:49:50;3.17;;;2.07;;
11123;SDS011;5616;42.692;23.312;2022-11-23T11:52:23;7.00;;;1.53;;
11123;SDS011;5616;42.692;23.312;2022-11-23T11:54:54;3.47;;;1.67;;
11123;SDS011;5616;42.692;23.312;2022-11-23T11:57:27;2.50;;;1.60;;
11123;SDS011;5616;42.692;23.312;2022-11-23T12:00:00;3.23;;;1.67;;
11123;SDS011;5616;42.692;23.312;2022-11-23T12:02:33;3.07;;;1.70;;
11123;SDS011;5616;42.692;23.312;2022-11-23T12:05:07;4.03;;;1.70;;
11123;SDS011;5616;42.692;23.312;2022-11-23T12:07:43;3.07;;;1.67;;
11123;SDS011;5616;42.692;23.312;2022-11-23T12:10:16;3.57;;;1.73;;
11123;SDS011;5616;42.692;23.312;2022-11-23T12:12:46;2.47;;;1.40;;
11123;SDS011;5616;42.692;23.312;2022-11-23T12:15:15;2.00;;;1.80;;
11123;SDS011;5616;42.692;23.312;2022-11-23T12:17:54;3.13;;;2.23;;
11123;SDS011;5616;42.692;23.312;2022-11-23T12:20:36;2.00;;;1.80;;
11123;SDS011;5616;42.692;23.312;2022-11-23T12:23:17;3.23;;;1.80;;
11123;SDS011;5616;42.692;23.312;2022-11-23T12:25:57;3.40;;;1.80;;
11123;SDS011;5616;42.692;23.312;2022-11-23T12:28:42;2.20;;;1.87;;
11123;SDS011;5616;42.692;23.312;2022-11-23T12:31:20;2.57;;;1.80;;
11123;SDS011;5616;42.692;23.312;2022-11-23T12:34:06;1.97;;;1.70;;
11123;SDS011;5616;42.692;23.312;2022-11-23T12:37:01;5.37;;;2.63;;
11123;SDS011;5616;42.692;23.312;2022-11-23T12:39:52;3.37;;;1.60;;
11123;SDS011;5616;42.692;23.312;2022-11-23T12:42:30;3.40;;;1.40;;
11123;SDS011;5616;42.692;23.312;2022-11-23T12:45:15;2.37;;;1.70;;
11123;SDS011;5616;42.692;23.312;2022-11-23T12:47:53;2.83;;;1.87;;
11123;SDS011;5616;42.692;23.312;2022-11-23T12:50:29;1.43;;;0.93;;
11123;SDS011;5616;42.692;23.312;2022-11-23T12:53:05;2.37;;;1.07;;
11123;SDS011;5616;42.692;23.312;2022-11-23T12:55:45;2.37;;;0.70;;
11123;SDS011;5616;42.692;23.312;2022-11-23T12:58:20;2.40;;;0.80;;
11123;SDS011;5616;42.692;23.312;2022-11-23T13:00:52;2.53;;;0.70;;
11123;SDS011;5616;42.692;23.312;2022-11-23T13:03:27;0.70;;;0.70;;
11123;SDS011;5616;42.692;23.312;2022-11-23T13:09:34;1.50;;;0.60;;
11123;SDS011;5616;42.692;23.312;2022-11-23T13:12:16;3.13;;;0.80;;
11123;SDS011;5616;42.692;23.312;2022-11-23T13:15:01;1.67;;;0.90;;
11123;SDS011;5616;42.692;23.312;2022-11-23T13:17:42;2.13;;;0.77;;
11123;SDS011;5616;42.692;23.312;2022-11-23T13:20:23;1.03;;;0.93;;
11123;SDS011;5616;42.692;23.312;2022-11-23T13:23:11;0.97;;;0.87;;
11123;SDS011;5616;42.692;23.312;2022-11-23T13:25:38;1.90;;;0.80;;
11123;SDS011;5616;42.692;23.312;2022-11-23T13:28:25;3.13;;;1.10;;
11123;SDS011;5616;42.692;23.312;2022-11-23T13:31:16;2.47;;;0.87;;
11123;SDS011;5616;42.692;23.312;2022-11-23T13:33:48;3.80;;;1.20;;
11123;SDS011;5616;42.692;23.312;2022-11-23T13:42:20;1.77;;;0.97;;
11123;SDS011;5616;42.692;23.312;2022-11-23T13:44:48;2.03;;;1.17;;
11123;SDS011;5616;42.692;23.312;2022-11-23T13:50:57;2.00;;;1.30;;
11123;SDS011;5616;42.692;23.312;2022-11-23T13:53:25;2.47;;;1.20;;
11123;SDS011;5616;42.692;23.312;2022-11-23T13:55:56;1.60;;;1.17;;
11123;SDS011;5616;42.692;23.312;2022-11-23T14:04:21;2.63;;;1.57;;
11123;SDS011;5616;42.692;23.312;2022-11-23T14:06:49;5.20;;;2.22;;
11123;SDS011;5616;42.692;23.312;2022-11-23T14:09:22;5.17;;;2.07;;
11123;SDS011;5616;42.692;23.312;2022-11-23T14:11:53;4.33;;;1.60;;
11123;SDS011;5616;42.692;23.312;2022-11-23T14:14:28;4.73;;;1.43;;
11123;SDS011;5616;42.692;23.312;2022-11-23T14:17:05;6.17;;;1.27;;
11123;SDS011;5616;42.692;23.312;2022-11-23T14:19:53;1.70;;;1.20;;
11123;SDS011;5616;42.692;23.312;2022-11-23T14:22:35;1.83;;;1.30;;
11123;SDS011;5616;42.692;23.312;2022-11-23T14:25:14;5.63;;;1.63;;
11123;SDS011;5616;42.692;23.312;2022-11-23T14:27:57;5.03;;;1.70;;
11123;SDS011;5616;42.692;23.312;2022-11-23T14:30:43;4.87;;;1.60;;
11123;SDS011;5616;42.692;23.312;2022-11-23T14:33:23;2.83;;;1.60;;
11123;SDS011;5616;42.692;23.312;2022-11-23T14:36:02;3.97;;;1.80;;
11123;SDS011;5616;42.692;23.312;2022-11-23T14:38:47;2.83;;;1.10;;
11123;SDS011;5616;42.692;23.312;2022-11-23T14:41:33;2.40;;;1.33;;
11123;SDS011;5616;42.692;23.312;2022-11-23T14:44:01;2.33;;;1.30;;
11123;SDS011;5616;42.692;23.312;2022-11-23T14:46:29;2.40;;;1.30;;
11123;SDS011;5616;42.692;23.312;2022-11-23T14:49:01;1.67;;;1.13;;
11123;SDS011;5616;42.692;23.312;2022-11-23T14:51:33;3.13;;;1.60;;
11123;SDS011;5616;42.692;23.312;2022-11-23T14:54:01;2.00;;;1.40;;
11123;SDS011;5616;42.692;23.312;2022-11-23T14:56:35;2.83;;;1.50;;
11123;SDS011;5616;42.692;23.312;2022-11-23T14:59:05;4.17;;;1.53;;
11123;SDS011;5616;42.692;23.312;2022-11-23T15:01:34;2.00;;;1.37;;
11123;SDS011;5616;42.692;23.312;2022-11-23T15:04:06;2.30;;;1.40;;
11123;SDS011;5616;42.692;23.312;2022-11-23T15:06:37;6.63;;;1.53;;
11123;SDS011;5616;42.692;23.312;2022-11-23T15:09:12;1.73;;;1.30;;
11123;SDS011;5616;42.692;23.312;2022-11-23T15:11:46;4.83;;;1.90;;
11123;SDS011;5616;42.692;23.312;2022-11-23T15:14:17;1.87;;;1.50;;
11123;SDS011;5616;42.692;23.312;2022-11-23T15:16:46;2.70;;;1.70;;
11123;SDS011;5616;42.692;23.312;2022-11-23T15:19:25;3.40;;;1.63;;
11123;SDS011;5616;42.692;23.312;2022-11-23T15:21:54;2.33;;;1.50;;